Terminal Aerodrome Forecast
Issued by NWS Dallas/Fort Worth, TX

Home | Current Version | Previous Version | Text Only | Print | Product List | Glossary On
Versions: 1 2 3 4 5 6 7 8 9 10 11 12 13 14 15 16 17 18 19 20 21 22 23 24 25
000
FTUS44 KFWD 010700 AAA
TAFACT
TAF AMD
KACT 010759Z 0108/0206 17010KT P6SM SKC
     FM010900 18010KT P6SM BKN012
      TEMPO 0109/0112 5SM BR BKN008
     FM011500 18008KT P6SM BKN020
     FM011700 17012KT P6SM SCT040=

USA.gov is the U.S. government's official web portal to all federal, state and local government web resources and services.